sensor_id;sensor_type;location;lat;lon;timestamp;P1;durP1;ratioP1;P2;durP2;ratioP2
2191;SDS011;1102;49.718;11.902;2023-02-15T00:01:47;33.43;;;11.90;;
2191;SDS011;1102;49.718;11.902;2023-02-15T00:04:15;35.83;;;11.53;;
2191;SDS011;1102;49.718;11.902;2023-02-15T00:06:43;40.70;;;11.30;;
2191;SDS011;1102;49.718;11.902;2023-02-15T00:09:10;25.93;;;12.23;;
2191;SDS011;1102;49.718;11.902;2023-02-15T00:11:38;44.43;;;12.73;;
2191;SDS011;1102;49.718;11.902;2023-02-15T00:16:41;22.37;;;9.77;;
2191;SDS011;1102;49.718;11.902;2023-02-15T00:19:09;24.00;;;11.67;;
2191;SDS011;1102;49.718;11.902;2023-02-15T00:21:37;22.60;;;12.93;;
2191;SDS011;1102;49.718;11.902;2023-02-15T00:24:06;15.87;;;9.40;;
2191;SDS011;1102;49.718;11.902;2023-02-15T00:26:35;21.57;;;10.57;;
2191;SDS011;1102;49.718;11.902;2023-02-15T00:29:04;11.23;;;7.93;;
2191;SDS011;1102;49.718;11.902;2023-02-15T00:31:31;32.47;;;10.57;;
2191;SDS011;1102;49.718;11.902;2023-02-15T00:34:03;29.83;;;12.13;;
2191;SDS011;1102;49.718;11.902;2023-02-15T00:36:37;41.80;;;11.83;;
2191;SDS011;1102;49.718;11.902;2023-02-15T00:39:04;29.73;;;11.70;;
2191;SDS011;1102;49.718;11.902;2023-02-15T00:41:32;36.20;;;10.50;;
2191;SDS011;1102;49.718;11.902;2023-02-15T00:43:59;29.03;;;10.50;;
2191;SDS011;1102;49.718;11.902;2023-02-15T00:46:29;18.70;;;9.43;;
2191;SDS011;1102;49.718;11.902;2023-02-15T00:48:56;23.60;;;10.27;;
2191;SDS011;1102;49.718;11.902;2023-02-15T00:51:23;19.07;;;11.13;;
2191;SDS011;1102;49.718;11.902;2023-02-15T00:53:50;17.63;;;9.70;;
2191;SDS011;1102;49.718;11.902;2023-02-15T00:56:18;28.17;;;11.33;;
2191;SDS011;1102;49.718;11.902;2023-02-15T00:58:44;33.60;;;9.70;;
2191;SDS011;1102;49.718;11.902;2023-02-15T01:01:13;23.40;;;11.73;;
2191;SDS011;1102;49.718;11.902;2023-02-15T01:03:43;29.47;;;11.40;;
2191;SDS011;1102;49.718;11.902;2023-02-15T01:06:12;21.97;;;9.77;;
2191;SDS011;1102;49.718;11.902;2023-02-15T01:08:42;29.73;;;11.70;;
2191;SDS011;1102;49.718;11.902;2023-02-15T01:11:11;36.00;;;13.20;;
2191;SDS011;1102;49.718;11.902;2023-02-15T01:13:39;49.53;;;13.80;;
2191;SDS011;1102;49.718;11.902;2023-02-15T01:16:07;55.93;;;14.80;;
2191;SDS011;1102;49.718;11.902;2023-02-15T01:18:35;38.87;;;12.70;;
2191;SDS011;1102;49.718;11.902;2023-02-15T01:21:12;23.53;;;11.50;;
2191;SDS011;1102;49.718;11.902;2023-02-15T01:23:43;20.33;;;10.80;;
2191;SDS011;1102;49.718;11.902;2023-02-15T01:26:11;36.33;;;12.87;;
2191;SDS011;1102;49.718;11.902;2023-02-15T01:28:38;27.03;;;11.77;;
2191;SDS011;1102;49.718;11.902;2023-02-15T01:31:06;45.20;;;12.70;;
2191;SDS011;1102;49.718;11.902;2023-02-15T01:33:37;25.80;;;11.77;;
2191;SDS011;1102;49.718;11.902;2023-02-15T01:36:04;36.93;;;12.00;;
2191;SDS011;1102;49.718;11.902;2023-02-15T01:38:31;49.43;;;11.80;;
2191;SDS011;1102;49.718;11.902;2023-02-15T01:40:59;25.00;;;11.10;;
2191;SDS011;1102;49.718;11.902;2023-02-15T01:43:47;51.20;;;12.80;;
2191;SDS011;1102;49.718;11.902;2023-02-15T01:46:48;54.30;;;12.80;;
2191;SDS011;1102;49.718;11.902;2023-02-15T01:49:15;41.60;;;11.23;;
2191;SDS011;1102;49.718;11.902;2023-02-15T01:51:45;21.13;;;10.40;;
2191;SDS011;1102;49.718;11.902;2023-02-15T01:54:19;47.93;;;11.23;;
2191;SDS011;1102;49.718;11.902;2023-02-15T01:56:58;21.77;;;11.80;;
2191;SDS011;1102;49.718;11.902;2023-02-15T01:59:29;40.53;;;13.50;;
2191;SDS011;1102;49.718;11.902;2023-02-15T02:02:00;35.93;;;12.70;;
2191;SDS011;1102;49.718;11.902;2023-02-15T02:04:29;56.63;;;12.67;;
2191;SDS011;1102;49.718;11.902;2023-02-15T02:07:01;52.87;;;12.33;;
2191;SDS011;1102;49.718;11.902;2023-02-15T02:09:30;45.23;;;12.80;;
2191;SDS011;1102;49.718;11.902;2023-02-15T02:11:58;23.30;;;12.53;;
2191;SDS011;1102;49.718;11.902;2023-02-15T02:14:25;28.30;;;12.13;;
2191;SDS011;1102;49.718;11.902;2023-02-15T02:17:06;33.23;;;14.07;;
2191;SDS011;1102;49.718;11.902;2023-02-15T02:25:08;23.10;;;13.57;;
2191;SDS011;1102;49.718;11.902;2023-02-15T02:30:36;25.27;;;12.17;;
2191;SDS011;1102;49.718;11.902;2023-02-15T02:33:35;32.30;;;13.20;;
2191;SDS011;1102;49.718;11.902;2023-02-15T02:36:20;41.03;;;13.27;;
2191;SDS011;1102;49.718;11.902;2023-02-15T02:42:06;35.90;;;13.20;;
2191;SDS011;1102;49.718;11.902;2023-02-15T02:44:43;35.77;;;12.87;;
2191;SDS011;1102;49.718;11.902;2023-02-15T02:47:16;33.53;;;13.60;;
2191;SDS011;1102;49.718;11.902;2023-02-15T02:49:43;27.73;;;11.73;;
2191;SDS011;1102;49.718;11.902;2023-02-15T02:55:08;33.60;;;12.50;;
2191;SDS011;1102;49.718;11.902;2023-02-15T02:57:40;29.80;;;12.30;;
2191;SDS011;1102;49.718;11.902;2023-02-15T03:00:14;23.90;;;11.57;;
2191;SDS011;1102;49.718;11.902;2023-02-15T03:02:43;29.60;;;13.60;;
2191;SDS011;1102;49.718;11.902;2023-02-15T03:05:15;41.73;;;14.43;;
2191;SDS011;1102;49.718;11.902;2023-02-15T03:07:46;35.40;;;13.83;;
2191;SDS011;1102;49.718;11.902;2023-02-15T03:10:18;55.67;;;11.70;;
2191;SDS011;1102;49.718;11.902;2023-02-15T03:12:49;86.33;;;15.10;;
2191;SDS011;1102;49.718;11.902;2023-02-15T03:15:25;48.93;;;13.53;;
2191;SDS011;1102;49.718;11.902;2023-02-15T03:18:16;37.63;;;12.13;;
2191;SDS011;1102;49.718;11.902;2023-02-15T03:20:46;36.10;;;11.80;;
2191;SDS011;1102;49.718;11.902;2023-02-15T03:23:20;54.83;;;12.00;;
2191;SDS011;1102;49.718;11.902;2023-02-15T03:25:54;69.53;;;13.77;;
2191;SDS011;1102;49.718;11.902;2023-02-15T03:28:29;37.27;;;14.47;;
2191;SDS011;1102;49.718;11.902;2023-02-15T03:31:01;29.83;;;12.03;;
2191;SDS011;1102;49.718;11.902;2023-02-15T03:33:31;36.50;;;13.60;;
2191;SDS011;1102;49.718;11.902;2023-02-15T03:36:04;36.13;;;11.37;;
2191;SDS011;1102;49.718;11.902;2023-02-15T03:41:23;40.10;;;12.47;;
2191;SDS011;1102;49.718;11.902;2023-02-15T03:43:56;28.50;;;11.70;;
2191;SDS011;1102;49.718;11.902;2023-02-15T03:49:09;28.30;;;13.37;;
2191;SDS011;1102;49.718;11.902;2023-02-15T03:51:42;29.10;;;13.00;;
2191;SDS011;1102;49.718;11.902;2023-02-15T03:54:13;29.60;;;13.50;;
2191;SDS011;1102;49.718;11.902;2023-02-15T03:57:03;26.13;;;13.17;;
2191;SDS011;1102;49.718;11.902;2023-02-15T03:59:49;30.50;;;14.30;;
2191;SDS011;1102;49.718;11.902;2023-02-15T04:02:38;42.10;;;12.70;;
2191;SDS011;1102;49.718;11.902;2023-02-15T04:05:15;41.00;;;12.70;;
2191;SDS011;1102;49.718;11.902;2023-02-15T04:07:42;71.53;;;14.67;;
2191;SDS011;1102;49.718;11.902;2023-02-15T04:10:08;39.50;;;14.00;;
2191;SDS011;1102;49.718;11.902;2023-02-15T04:12:53;38.83;;;13.87;;
2191;SDS011;1102;49.718;11.902;2023-02-15T04:15:20;35.00;;;14.90;;
2191;SDS011;1102;49.718;11.902;2023-02-15T04:18:05;52.10;;;16.47;;
2191;SDS011;1102;49.718;11.902;2023-02-15T04:20:32;74.20;;;15.20;;
2191;SDS011;1102;49.718;11.902;2023-02-15T04:23:17;42.33;;;16.00;;
2191;SDS011;1102;49.718;11.902;2023-02-15T04:26:03;48.80;;;14.93;;
2191;SDS011;1102;49.718;11.902;2023-02-15T04:28:33;43.77;;;15.03;;
2191;SDS011;1102;49.718;11.902;2023-02-15T04:31:00;43.57;;;15.50;;
2191;SDS011;1102;49.718;11.902;2023-02-15T04:33:26;30.60;;;13.53;;
2191;SDS011;1102;49.718;11.902;2023-02-15T04:35:53;41.93;;;15.23;;
2191;SDS011;1102;49.718;11.902;2023-02-15T04:38:20;28.80;;;14.30;;
2191;SDS011;1102;49.718;11.902;2023-02-15T04:40:51;34.60;;;15.03;;
2191;SDS011;1102;49.718;11.902;2023-02-15T04:43:18;26.90;;;12.17;;
2191;SDS011;1102;49.718;11.902;2023-02-15T04:45:49;36.90;;;15.33;;
2191;SDS011;1102;49.718;11.902;2023-02-15T04:48:17;25.17;;;13.23;;
2191;SDS011;1102;49.718;11.902;2023-02-15T04:50:44;42.90;;;12.53;;
2191;SDS011;1102;49.718;11.902;2023-02-15T04:53:11;34.67;;;13.53;;
2191;SDS011;1102;49.718;11.902;2023-02-15T04:55:38;45.77;;;17.30;;
2191;SDS011;1102;49.718;11.902;2023-02-15T04:58:05;34.30;;;11.50;;
2191;SDS011;1102;49.718;11.902;2023-02-15T05:00:31;33.27;;;13.60;;
2191;SDS011;1102;49.718;11.902;2023-02-15T05:02:58;40.97;;;15.70;;
2191;SDS011;1102;49.718;11.902;2023-02-15T05:05:25;26.23;;;14.27;;
2191;SDS011;1102;49.718;11.902;2023-02-15T05:07:52;37.30;;;15.90;;
2191;SDS011;1102;49.718;11.902;2023-02-15T05:10:18;46.80;;;15.13;;
2191;SDS011;1102;49.718;11.902;2023-02-15T05:12:45;40.13;;;14.10;;
2191;SDS011;1102;49.718;11.902;2023-02-15T05:15:12;25.90;;;13.43;;
2191;SDS011;1102;49.718;11.902;2023-02-15T05:17:39;26.03;;;12.33;;
2191;SDS011;1102;49.718;11.902;2023-02-15T05:20:06;23.30;;;12.40;;
2191;SDS011;1102;49.718;11.902;2023-02-15T05:22:33;18.53;;;12.30;;
2191;SDS011;1102;49.718;11.902;2023-02-15T05:25:00;20.80;;;12.07;;
2191;SDS011;1102;49.718;11.902;2023-02-15T05:27:45;21.67;;;12.40;;
2191;SDS011;1102;49.718;11.902;2023-02-15T05:30:30;23.47;;;13.00;;
2191;SDS011;1102;49.718;11.902;2023-02-15T05:32:57;24.87;;;12.67;;
2191;SDS011;1102;49.718;11.902;2023-02-15T05:35:24;28.00;;;11.23;;
2191;SDS011;1102;49.718;11.902;2023-02-15T05:37:51;20.53;;;10.63;;
2191;SDS011;1102;49.718;11.902;2023-02-15T05:40:17;32.70;;;10.47;;
2191;SDS011;1102;49.718;11.902;2023-02-15T05:42:44;28.33;;;11.07;;
2191;SDS011;1102;49.718;11.902;2023-02-15T05:45:11;18.83;;;9.87;;
2191;SDS011;1102;49.718;11.902;2023-02-15T05:47:37;28.97;;;12.50;;
2191;SDS011;1102;49.718;11.902;2023-02-15T05:50:04;21.40;;;11.33;;
2191;SDS011;1102;49.718;11.902;2023-02-15T05:52:31;25.57;;;11.43;;
2191;SDS011;1102;49.718;11.902;2023-02-15T05:54:58;20.80;;;12.57;;
2191;SDS011;1102;49.718;11.902;2023-02-15T05:57:26;21.93;;;12.47;;
2191;SDS011;1102;49.718;11.902;2023-02-15T05:59:53;21.03;;;10.33;;
2191;SDS011;1102;49.718;11.902;2023-02-15T06:02:19;34.53;;;11.53;;
2191;SDS011;1102;49.718;11.902;2023-02-15T06:04:46;20.73;;;11.73;;
2191;SDS011;1102;49.718;11.902;2023-02-15T06:07:13;25.57;;;11.50;;
2191;SDS011;1102;49.718;11.902;2023-02-15T06:09:40;18.00;;;11.80;;
2191;SDS011;1102;49.718;11.902;2023-02-15T06:12:07;26.50;;;12.83;;
2191;SDS011;1102;49.718;11.902;2023-02-15T06:14:33;17.67;;;9.80;;
2191;SDS011;1102;49.718;11.902;2023-02-15T06:17:00;23.97;;;11.33;;
2191;SDS011;1102;49.718;11.902;2023-02-15T06:19:27;31.33;;;10.90;;
2191;SDS011;1102;49.718;11.902;2023-02-15T06:21:53;21.97;;;12.07;;
2191;SDS011;1102;49.718;11.902;2023-02-15T06:24:20;54.77;;;14.00;;
2191;SDS011;1102;49.718;11.902;2023-02-15T06:26:47;28.57;;;12.97;;
2191;SDS011;1102;49.718;11.902;2023-02-15T06:29:13;39.70;;;13.60;;
2191;SDS011;1102;49.718;11.902;2023-02-15T06:31:40;35.93;;;15.70;;
2191;SDS011;1102;49.718;11.902;2023-02-15T06:34:07;33.07;;;16.30;;
2191;SDS011;1102;49.718;11.902;2023-02-15T06:36:34;23.40;;;13.57;;
2191;SDS011;1102;49.718;11.902;2023-02-15T06:39:00;31.50;;;11.50;;
2191;SDS011;1102;49.718;11.902;2023-02-15T06:41:29;22.60;;;14.40;;
2191;SDS011;1102;49.718;11.902;2023-02-15T06:43:56;30.40;;;12.70;;
2191;SDS011;1102;49.718;11.902;2023-02-15T06:46:22;37.53;;;13.57;;
2191;SDS011;1102;49.718;11.902;2023-02-15T06:48:49;44.43;;;11.97;;
2191;SDS011;1102;49.718;11.902;2023-02-15T06:51:16;34.90;;;13.70;;
2191;SDS011;1102;49.718;11.902;2023-02-15T06:53:42;34.90;;;13.60;;
2191;SDS011;1102;49.718;11.902;2023-02-15T06:56:10;29.30;;;13.03;;
2191;SDS011;1102;49.718;11.902;2023-02-15T06:58:37;41.97;;;14.97;;
2191;SDS011;1102;49.718;11.902;2023-02-15T07:01:08;23.97;;;13.33;;
2191;SDS011;1102;49.718;11.902;2023-02-15T07:03:35;44.43;;;13.57;;
2191;SDS011;1102;49.718;11.902;2023-02-15T07:06:02;31.77;;;12.80;;
2191;SDS011;1102;49.718;11.902;2023-02-15T07:08:34;30.30;;;13.67;;
2191;SDS011;1102;49.718;11.902;2023-02-15T07:11:02;29.10;;;13.27;;
2191;SDS011;1102;49.718;11.902;2023-02-15T07:13:47;24.03;;;12.40;;
2191;SDS011;1102;49.718;11.902;2023-02-15T07:16:14;23.57;;;13.87;;
2191;SDS011;1102;49.718;11.902;2023-02-15T07:18:41;31.00;;;12.60;;
2191;SDS011;1102;49.718;11.902;2023-02-15T07:21:08;44.97;;;14.37;;
2191;SDS011;1102;49.718;11.902;2023-02-15T07:23:35;25.60;;;12.90;;
2191;SDS011;1102;49.718;11.902;2023-02-15T07:26:02;26.90;;;13.80;;
2191;SDS011;1102;49.718;11.902;2023-02-15T07:28:30;27.93;;;12.07;;
2191;SDS011;1102;49.718;11.902;2023-02-15T07:30:57;25.40;;;13.17;;
2191;SDS011;1102;49.718;11.902;2023-02-15T07:33:24;24.37;;;13.20;;
2191;SDS011;1102;49.718;11.902;2023-02-15T07:35:51;33.10;;;15.00;;
2191;SDS011;1102;49.718;11.902;2023-02-15T07:38:20;29.67;;;14.73;;
2191;SDS011;1102;49.718;11.902;2023-02-15T07:40:47;45.27;;;18.20;;
2191;SDS011;1102;49.718;11.902;2023-02-15T07:43:14;24.37;;;15.40;;
2191;SDS011;1102;49.718;11.902;2023-02-15T07:45:41;31.70;;;16.87;;
2191;SDS011;1102;49.718;11.902;2023-02-15T07:48:08;33.23;;;15.97;;
2191;SDS011;1102;49.718;11.902;2023-02-15T07:50:35;27.57;;;14.90;;
2191;SDS011;1102;49.718;11.902;2023-02-15T07:53:02;20.27;;;13.47;;
2191;SDS011;1102;49.718;11.902;2023-02-15T07:55:30;26.27;;;15.30;;
2191;SDS011;1102;49.718;11.902;2023-02-15T07:57:57;28.13;;;16.03;;
2191;SDS011;1102;49.718;11.902;2023-02-15T08:00:23;26.33;;;14.10;;
2191;SDS011;1102;49.718;11.902;2023-02-15T08:02:54;35.60;;;18.50;;
2191;SDS011;1102;49.718;11.902;2023-02-15T08:05:41;32.43;;;16.80;;
2191;SDS011;1102;49.718;11.902;2023-02-15T08:08:11;20.93;;;14.00;;
2191;SDS011;1102;49.718;11.902;2023-02-15T08:11:06;20.57;;;13.80;;
2191;SDS011;1102;49.718;11.902;2023-02-15T08:14:03;23.40;;;13.87;;
2191;SDS011;1102;49.718;11.902;2023-02-15T08:18:59;22.50;;;13.70;;
2191;SDS011;1102;49.718;11.902;2023-02-15T08:21:45;17.00;;;13.03;;
2191;SDS011;1102;49.718;11.902;2023-02-15T08:24:14;13.87;;;9.10;;
2191;SDS011;1102;49.718;11.902;2023-02-15T08:26:43;18.77;;;10.87;;
2191;SDS011;1102;49.718;11.902;2023-02-15T08:29:23;16.90;;;10.90;;
2191;SDS011;1102;49.718;11.902;2023-02-15T08:31:53;16.23;;;10.63;;
2191;SDS011;1102;49.718;11.902;2023-02-15T08:34:25;20.27;;;13.77;;
2191;SDS011;1102;49.718;11.902;2023-02-15T08:36:52;17.83;;;11.17;;
2191;SDS011;1102;49.718;11.902;2023-02-15T08:39:18;16.20;;;11.00;;
2191;SDS011;1102;49.718;11.902;2023-02-15T08:41:46;26.90;;;14.47;;
2191;SDS011;1102;49.718;11.902;2023-02-15T08:44:15;22.63;;;12.83;;
2191;SDS011;1102;49.718;11.902;2023-02-15T08:46:43;17.53;;;12.27;;
2191;SDS011;1102;49.718;11.902;2023-02-15T08:49:12;18.57;;;13.40;;
2191;SDS011;1102;49.718;11.902;2023-02-15T08:51:42;18.83;;;11.93;;
2191;SDS011;1102;49.718;11.902;2023-02-15T08:54:09;20.97;;;13.30;;
2191;SDS011;1102;49.718;11.902;2023-02-15T08:56:39;16.33;;;10.30;;
2191;SDS011;1102;49.718;11.902;2023-02-15T08:59:11;20.00;;;11.63;;
2191;SDS011;1102;49.718;11.902;2023-02-15T09:01:40;20.30;;;12.20;;
2191;SDS011;1102;49.718;11.902;2023-02-15T09:04:07;22.00;;;12.27;;
2191;SDS011;1102;49.718;11.902;2023-02-15T09:06:35;24.93;;;12.20;;
2191;SDS011;1102;49.718;11.902;2023-02-15T09:09:04;16.17;;;10.90;;
2191;SDS011;1102;49.718;11.902;2023-02-15T09:11:33;24.23;;;13.30;;
2191;SDS011;1102;49.718;11.902;2023-02-15T09:14:03;23.80;;;13.97;;
2191;SDS011;1102;49.718;11.902;2023-02-15T09:16:40;14.60;;;10.53;;
2191;SDS011;1102;49.718;11.902;2023-02-15T09:19:08;18.33;;;10.90;;
2191;SDS011;1102;49.718;11.902;2023-02-15T09:21:36;15.40;;;10.50;;
2191;SDS011;1102;49.718;11.902;2023-02-15T09:24:05;16.57;;;10.97;;
2191;SDS011;1102;49.718;11.902;2023-02-15T09:26:35;17.27;;;11.90;;
2191;SDS011;1102;49.718;11.902;2023-02-15T09:29:05;18.13;;;10.93;;
2191;SDS011;1102;49.718;11.902;2023-02-15T09:31:33;17.20;;;9.63;;
2191;SDS011;1102;49.718;11.902;2023-02-15T09:34:03;17.73;;;12.50;;
2191;SDS011;1102;49.718;11.902;2023-02-15T09:39:04;16.77;;;11.80;;
2191;SDS011;1102;49.718;11.902;2023-02-15T09:44:39;18.57;;;12.20;;
2191;SDS011;1102;49.718;11.902;2023-02-15T10:01:28;17.33;;;9.67;;
2191;SDS011;1102;49.718;11.902;2023-02-15T10:21:02;17.10;;;11.50;;
2191;SDS011;1102;49.718;11.902;2023-02-15T10:26:18;16.67;;;11.53;;
2191;SDS011;1102;49.718;11.902;2023-02-15T10:28:55;15.83;;;10.00;;
2191;SDS011;1102;49.718;11.902;2023-02-15T10:34:18;22.10;;;13.43;;
2191;SDS011;1102;49.718;11.902;2023-02-15T10:40:08;16.07;;;11.17;;
2191;SDS011;1102;49.718;11.902;2023-02-15T10:43:06;20.43;;;15.47;;
2191;SDS011;1102;49.718;11.902;2023-02-15T10:50:59;15.50;;;11.97;;
2191;SDS011;1102;49.718;11.902;2023-02-15T11:06:39;14.07;;;10.43;;
2191;SDS011;1102;49.718;11.902;2023-02-15T11:09:14;18.50;;;11.40;;
2191;SDS011;1102;49.718;11.902;2023-02-15T11:11:45;20.23;;;13.10;;
2191;SDS011;1102;49.718;11.902;2023-02-15T11:14:17;18.50;;;12.90;;
2191;SDS011;1102;49.718;11.902;2023-02-15T11:16:50;17.33;;;11.87;;
2191;SDS011;1102;49.718;11.902;2023-02-15T11:19:29;18.00;;;11.57;;
2191;SDS011;1102;49.718;11.902;2023-02-15T11:22:14;17.40;;;13.50;;
2191;SDS011;1102;49.718;11.902;2023-02-15T11:24:43;15.50;;;11.03;;
2191;SDS011;1102;49.718;11.902;2023-02-15T11:32:28;17.37;;;10.90;;
2191;SDS011;1102;49.718;11.902;2023-02-15T11:34:56;19.97;;;14.33;;
2191;SDS011;1102;49.718;11.902;2023-02-15T11:37:46;14.27;;;11.60;;
2191;SDS011;1102;49.718;11.902;2023-02-15T11:40:24;17.13;;;12.40;;
2191;SDS011;1102;49.718;11.902;2023-02-15T11:46:04;15.83;;;12.03;;
2191;SDS011;1102;49.718;11.902;2023-02-15T11:48:31;13.07;;;10.37;;
2191;SDS011;1102;49.718;11.902;2023-02-15T11:50:59;16.10;;;10.83;;
2191;SDS011;1102;49.718;11.902;2023-02-15T11:53:31;15.90;;;11.87;;
2191;SDS011;1102;49.718;11.902;2023-02-15T11:55:59;13.63;;;10.63;;
2191;SDS011;1102;49.718;11.902;2023-02-15T12:00:56;15.57;;;11.17;;
2191;SDS011;1102;49.718;11.902;2023-02-15T12:03:46;16.60;;;11.17;;
2191;SDS011;1102;49.718;11.902;2023-02-15T12:06:16;17.90;;;11.00;;
2191;SDS011;1102;49.718;11.902;2023-02-15T12:11:37;17.40;;;12.10;;
2191;SDS011;1102;49.718;11.902;2023-02-15T12:14:07;17.60;;;11.60;;
2191;SDS011;1102;49.718;11.902;2023-02-15T12:16:45;16.13;;;10.70;;
2191;SDS011;1102;49.718;11.902;2023-02-15T12:19:27;18.07;;;10.60;;
2191;SDS011;1102;49.718;11.902;2023-02-15T12:21:57;20.33;;;15.73;;
2191;SDS011;1102;49.718;11.902;2023-02-15T12:24:36;20.33;;;14.60;;
2191;SDS011;1102;49.718;11.902;2023-02-15T12:29:41;16.17;;;11.23;;
2191;SDS011;1102;49.718;11.902;2023-02-15T12:32:11;15.43;;;10.17;;
2191;SDS011;1102;49.718;11.902;2023-02-15T12:34:44;17.27;;;11.27;;
2191;SDS011;1102;49.718;11.902;2023-02-15T12:37:21;19.00;;;13.00;;
2191;SDS011;1102;49.718;11.902;2023-02-15T12:39:54;18.93;;;12.23;;
2191;SDS011;1102;49.718;11.902;2023-02-15T12:42:23;16.97;;;12.60;;
2191;SDS011;1102;49.718;11.902;2023-02-15T12:47:23;15.70;;;12.20;;
2191;SDS011;1102;49.718;11.902;2023-02-15T12:53:11;23.87;;;15.57;;
2191;SDS011;1102;49.718;11.902;2023-02-15T12:55:49;20.60;;;13.93;;
2191;SDS011;1102;49.718;11.902;2023-02-15T12:58:18;15.23;;;11.13;;
2191;SDS011;1102;49.718;11.902;2023-02-15T13:00:47;17.83;;;11.57;;
2191;SDS011;1102;49.718;11.902;2023-02-15T13:03:18;14.60;;;11.70;;
2191;SDS011;1102;49.718;11.902;2023-02-15T13:05:53;16.23;;;11.47;;
2191;SDS011;1102;49.718;11.902;2023-02-15T13:08:27;17.30;;;12.10;;
2191;SDS011;1102;49.718;11.902;2023-02-15T13:10:58;14.53;;;11.33;;
2191;SDS011;1102;49.718;11.902;2023-02-15T13:13:27;18.87;;;12.23;;
2191;SDS011;1102;49.718;11.902;2023-02-15T13:15:58;16.87;;;12.27;;
2191;SDS011;1102;49.718;11.902;2023-02-15T13:18:40;14.53;;;10.70;;
2191;SDS011;1102;49.718;11.902;2023-02-15T13:23:47;14.07;;;10.50;;
2191;SDS011;1102;49.718;11.902;2023-02-15T13:26:21;22.93;;;12.47;;
2191;SDS011;1102;49.718;11.902;2023-02-15T13:28:51;17.33;;;12.00;;
2191;SDS011;1102;49.718;11.902;2023-02-15T13:31:23;17.57;;;11.70;;
2191;SDS011;1102;49.718;11.902;2023-02-15T13:34:07;16.57;;;12.20;;
2191;SDS011;1102;49.718;11.902;2023-02-15T13:47:32;20.33;;;12.17;;
2191;SDS011;1102;49.718;11.902;2023-02-15T13:52:51;19.80;;;12.47;;
2191;SDS011;1102;49.718;11.902;2023-02-15T13:58:23;19.40;;;13.93;;
2191;SDS011;1102;49.718;11.902;2023-02-15T14:14:52;20.27;;;14.90;;
2191;SDS011;1102;49.718;11.902;2023-02-15T14:17:36;18.43;;;12.30;;
2191;SDS011;1102;49.718;11.902;2023-02-15T14:23:01;17.93;;;12.70;;
2191;SDS011;1102;49.718;11.902;2023-02-15T14:25:45;17.20;;;12.50;;
2191;SDS011;1102;49.718;11.902;2023-02-15T14:28:31;18.70;;;12.10;;
2191;SDS011;1102;49.718;11.902;2023-02-15T14:31:04;18.47;;;12.40;;
2191;SDS011;1102;49.718;11.902;2023-02-15T14:33:39;21.23;;;14.40;;
2191;SDS011;1102;49.718;11.902;2023-02-15T14:36:11;19.20;;;13.30;;
2191;SDS011;1102;49.718;11.902;2023-02-15T14:42:12;19.20;;;14.20;;
2191;SDS011;1102;49.718;11.902;2023-02-15T14:45:25;23.13;;;20.73;;
2191;SDS011;1102;49.718;11.902;2023-02-15T14:48:12;19.43;;;12.37;;
2191;SDS011;1102;49.718;11.902;2023-02-15T14:51:08;21.93;;;17.23;;
2191;SDS011;1102;49.718;11.902;2023-02-15T14:53:38;20.07;;;12.57;;
2191;SDS011;1102;49.718;11.902;2023-02-15T15:01:16;24.37;;;14.10;;
2191;SDS011;1102;49.718;11.902;2023-02-15T15:03:55;26.83;;;18.03;;
2191;SDS011;1102;49.718;11.902;2023-02-15T15:06:27;24.47;;;14.77;;
2191;SDS011;1102;49.718;11.902;2023-02-15T15:09:05;24.10;;;17.07;;
2191;SDS011;1102;49.718;11.902;2023-02-15T15:11:43;25.53;;;22.50;;
2191;SDS011;1102;49.718;11.902;2023-02-15T15:14:36;23.03;;;18.17;;
2191;SDS011;1102;49.718;11.902;2023-02-15T15:17:02;20.70;;;13.00;;
2191;SDS011;1102;49.718;11.902;2023-02-15T15:47:59;24.77;;;14.50;;
2191;SDS011;1102;49.718;11.902;2023-02-15T15:49:56;25.80;;;18.27;;
2191;SDS011;1102;49.718;11.902;2023-02-15T15:52:25;20.07;;;13.27;;
2191;SDS011;1102;49.718;11.902;2023-02-15T15:54:57;17.73;;;14.90;;
2191;SDS011;1102;49.718;11.902;2023-02-15T15:57:34;21.93;;;15.67;;
2191;SDS011;1102;49.718;11.902;2023-02-15T16:00:18;25.20;;;17.13;;
2191;SDS011;1102;49.718;11.902;2023-02-15T16:02:50;18.50;;;14.63;;
2191;SDS011;1102;49.718;11.902;2023-02-15T16:05:18;24.17;;;16.00;;
2191;SDS011;1102;49.718;11.902;2023-02-15T16:07:45;20.17;;;12.60;;
2191;SDS011;1102;49.718;11.902;2023-02-15T16:10:25;22.10;;;14.87;;
2191;SDS011;1102;49.718;11.902;2023-02-15T16:12:53;22.80;;;14.63;;
2191;SDS011;1102;49.718;11.902;2023-02-15T16:15:24;19.33;;;12.00;;
2191;SDS011;1102;49.718;11.902;2023-02-15T16:17:57;24.20;;;13.67;;
2191;SDS011;1102;49.718;11.902;2023-02-15T16:20:29;19.53;;;14.93;;
2191;SDS011;1102;49.718;11.902;2023-02-15T16:25:46;18.70;;;13.83;;
2191;SDS011;1102;49.718;11.902;2023-02-15T16:28:22;18.77;;;12.20;;
2191;SDS011;1102;49.718;11.902;2023-02-15T16:31:23;28.47;;;20.83;;
2191;SDS011;1102;49.718;11.902;2023-02-15T16:33:43;33.73;;;17.53;;
2191;SDS011;1102;49.718;11.902;2023-02-15T16:36:12;24.47;;;16.63;;
2191;SDS011;1102;49.718;11.902;2023-02-15T16:41:22;22.87;;;14.70;;
2191;SDS011;1102;49.718;11.902;2023-02-15T16:43:51;22.10;;;16.43;;
2191;SDS011;1102;49.718;11.902;2023-02-15T16:46:32;20.60;;;16.47;;
2191;SDS011;1102;49.718;11.902;2023-02-15T16:49:05;26.90;;;17.83;;
2191;SDS011;1102;49.718;11.902;2023-02-15T16:51:41;19.67;;;12.97;;
2191;SDS011;1102;49.718;11.902;2023-02-15T16:54:15;31.07;;;19.47;;
2191;SDS011;1102;49.718;11.902;2023-02-15T16:56:47;18.77;;;14.70;;
2191;SDS011;1102;49.718;11.902;2023-02-15T16:59:31;26.03;;;13.80;;
2191;SDS011;1102;49.718;11.902;2023-02-15T17:02:13;25.53;;;12.80;;
2191;SDS011;1102;49.718;11.902;2023-02-15T17:07:40;22.40;;;14.73;;
2191;SDS011;1102;49.718;11.902;2023-02-15T17:15:43;25.20;;;15.37;;
2191;SDS011;1102;49.718;11.902;2023-02-15T17:18:38;23.27;;;15.97;;
2191;SDS011;1102;49.718;11.902;2023-02-15T17:21:11;23.47;;;19.63;;
2191;SDS011;1102;49.718;11.902;2023-02-15T17:23:44;24.63;;;18.90;;
2191;SDS011;1102;49.718;11.902;2023-02-15T17:26:23;26.47;;;17.67;;
2191;SDS011;1102;49.718;11.902;2023-02-15T17:28:56;27.60;;;17.80;;
2191;SDS011;1102;49.718;11.902;2023-02-15T17:31:26;25.30;;;18.60;;
2191;SDS011;1102;49.718;11.902;2023-02-15T17:33:59;26.17;;;16.80;;
2191;SDS011;1102;49.718;11.902;2023-02-15T17:36:30;26.70;;;17.23;;
2191;SDS011;1102;49.718;11.902;2023-02-15T17:41:24;26.10;;;16.20;;
2191;SDS011;1102;49.718;11.902;2023-02-15T17:43:52;24.70;;;15.17;;
2191;SDS011;1102;49.718;11.902;2023-02-15T17:46:19;28.63;;;18.30;;
2191;SDS011;1102;49.718;11.902;2023-02-15T17:48:49;40.20;;;19.00;;
2191;SDS011;1102;49.718;11.902;2023-02-15T17:51:18;28.97;;;17.03;;
2191;SDS011;1102;49.718;11.902;2023-02-15T17:53:47;60.43;;;24.40;;
2191;SDS011;1102;49.718;11.902;2023-02-15T17:56:34;41.93;;;18.53;;
2191;SDS011;1102;49.718;11.902;2023-02-15T17:59:02;26.73;;;16.97;;
2191;SDS011;1102;49.718;11.902;2023-02-15T18:01:33;23.90;;;16.00;;
2191;SDS011;1102;49.718;11.902;2023-02-15T18:04:19;31.47;;;17.20;;
2191;SDS011;1102;49.718;11.902;2023-02-15T18:07:07;32.60;;;16.60;;
2191;SDS011;1102;49.718;11.902;2023-02-15T18:09:53;39.37;;;16.70;;
2191;SDS011;1102;49.718;11.902;2023-02-15T18:12:39;38.77;;;16.23;;
2191;SDS011;1102;49.718;11.902;2023-02-15T18:15:06;28.20;;;16.37;;
2191;SDS011;1102;49.718;11.902;2023-02-15T18:17:41;36.63;;;20.67;;
2191;SDS011;1102;49.718;11.902;2023-02-15T18:20:17;36.57;;;18.47;;
2191;SDS011;1102;49.718;11.902;2023-02-15T18:22:50;35.50;;;19.30;;
2191;SDS011;1102;49.718;11.902;2023-02-15T18:25:18;33.73;;;20.73;;